Celebrity Galaxy — 9HJH9 — position and weather

sailwx.info

Track history (hours):
 
Tides and Currents Weather Stations Pressure Air Temp Water Temp Dewpoint Dewpoint Depression Visibility Wind Speed Wind Dir Waves Ship Positions

Celebrity Galaxy

Last reported at 2020-Jul-13 17:54 UTC. Time now 2020-Jul-14 13:19 UTC.
Position N 50°36' W 002°22'.

Length 262 m; draft 8.4 m.

Type: Passenger vessel. MMSI: 249051000.

Date/timePositionNaut miles runAvg speedWind from/ knotsBaromVisibWave heightAir tempDewpointWater temp
2020-Jul-13 17:54N 50°36' W 002°22'0 0.0
2020-Jul-13 17:00N 50°36' W 002°22'0 0.0
2020-Jul-13 13:27N 50°36' W 002°22'0 0.0
2020-Jul-13 13:00N 50°36' W 002°22'0 0.0
2020-Jul-13 07:58N 50°36' W 002°22'0 0.0
2020-Jul-13 02:55N 50°36' W 002°22'0 0.0
2020-Jul-12 22:28N 50°36' W 002°22'0 0.0
2020-Jul-12 21:59N 50°36' W 002°22'0 0.0
2020-Jul-12 19:00N 50°36' W 002°22'0 0.0
2020-Jul-12 18:30N 50°36' W 002°22'0 0.0
2020-Jul-12 14:29N 50°36' W 002°22'0 0.0
2020-Jul-12 13:28N 50°36' W 002°22'0 0.0
2020-Jul-12 12:31N 50°36' W 002°22'0 0.0
2020-Jul-12 11:01N 50°36' W 002°22'0 0.0
2020-Jul-12 05:00N 50°36' W 002°22'0 0.0
2020-Jul-12 01:27N 50°36' W 002°22'0 0.0
2020-Jul-11 23:54N 50°36' W 002°22'0 0.0
2020-Jul-11 22:15N 50°36' W 002°22'0 0.0
2020-Jul-11 20:38N 50°36' W 002°22'0 0.0
2020-Jul-11 18:58N 50°36' W 002°22'0 0.0
2020-Jul-11 15:28N 50°36' W 002°22'0 0.0
2020-Jul-11 13:17N 50°36' W 002°22'0 0.1
2020-Jul-11 11:00N 50°36' W 002°22'14 6.2
2020-Jul-11 08:46N 50°28' W 002°04'912.4
2020-Jul-11 08:01N 50°27' W 001°49'12 0.9
2020-Jul-10 19:26N 50°25' W 001°32'0 0.2
2020-Jul-10 18:59N 50°25' W 001°32'0 0.0
2020-Jul-10 15:59N 50°25' W 001°32'0 0.2
2020-Jul-10 14:59N 50°25' W 001°31'0 0.0
2020-Jul-10 13:29N 50°25' W 001°31'0 0.0
2020-Jul-10 11:59N 50°25' W 001°31'0 0.0
2020-Jul-10 10:50N 50°25' W 001°31'0 0.0
2020-Jul-10 08:17N 50°25' W 001°31'0 0.0
2020-Jul-09 06:52N 50°25' W 001°31'0 0.2
2020-Jul-09 05:52N 50°25' W 001°32'0 0.1
2020-Jul-09 02:49N 50°25' W 001°31'1 0.1
2020-Jul-08 12:43N 50°25' W 001°30'0 0.0
2020-Jul-07 22:59N 50°25' W 001°29'0 0.1
2020-Jul-07 21:56N 50°25' W 001°30'0 0.0
2020-Jul-07 20:31N 50°25' W 001°30'0 0.1
2020-Jul-07 18:28N 50°25' W 001°30'14 5.5
2020-Jul-07 15:57N 50°32' W 001°11'4 4.8
2020-Jul-07 15:01N 50°36' W 001°08'0 0.3
2020-Jul-07 13:57N 50°36' W 001°08'0 0.4
2020-Jul-07 13:01N 50°37' W 001°07'0 0.0
2020-Jul-07 11:25N 50°37' W 001°07'0 0.1
2020-Jul-07 11:00N 50°37' W 001°07'7 1.9
2020-Jul-07 07:30N 50°32' W 000°60'8 4.1
2020-Jul-07 05:31N 50°28' W 001°10'2 4.8
2020-Jul-07 05:00N 50°29' W 001°14'32 6.3
2020-Jul-07 00:00N 50°21' W 002°02'6 3.9
2020-Jul-06 22:27N 50°26' W 002°08'20 5.8
2020-Jul-06 18:59N 50°42' W 001°49'0 0.0
2020-Jul-06 18:29N 50°42' W 001°49'0 0.0
2020-Jul-06 17:25N 50°42' W 001°49'0 0.0
2020-Jul-06 16:58N 50°42' W 001°49'0 0.0
2020-Jul-06 12:00N 50°42' W 001°49'0 0.1
2020-Jul-06 11:00N 50°42' W 001°49'0 0.1
2020-Jul-06 10:00N 50°42' W 001°49'0 0.0
2020-Jul-06 09:30N 50°42' W 001°49'0 0.0
2020-Jul-06 08:30N 50°42' W 001°49'0 0.0
2020-Jul-06 07:54N 50°42' W 001°49'0 0.0
2020-Jul-06 04:30N 50°42' W 001°49'0 0.0
2020-Jul-06 03:00N 50°42' W 001°49'0 0.0
2020-Jul-06 02:00N 50°42' W 001°49'0 0.0
2020-Jul-06 01:30N 50°42' W 001°49'0 0.0
2020-Jul-05 22:00N 50°42' W 001°49'0 0.0
2020-Jul-05 20:00N 50°42' W 001°49'0 0.0
2020-Jul-05 16:00N 50°42' W 001°49'0 0.2
2020-Jul-05 15:30N 50°42' W 001°49'0 0.0
2020-Jul-05 12:30N 50°42' W 001°49'0 0.0
2020-Jul-05 10:30N 50°42' W 001°49'0 0.0
2020-Jul-05 05:30N 50°42' W 001°49'0 0.0
2020-Jul-05 04:00N 50°42' W 001°49'0 0.0
2020-Jul-05 02:57N 50°42' W 001°49'0 0.0
2020-Jul-05 02:00N 50°42' W 001°49'0 0.0
2020-Jul-04 22:30N 50°42' W 001°49'0 0.0
2020-Jul-04 20:00N 50°42' W 001°49'0 0.1
2020-Jul-04 19:30N 50°42' W 001°49'0 0.1
2020-Jul-04 18:30N 50°42' W 001°49'22 3.5
2020-Jul-04 12:16N 50°34' W 002°21'8 9.9
2020-Jul-04 11:27N 50°30' W 002°10'17 2.0
2020-Jul-04 02:59N 50°42' W 001°49'0 0.0
2020-Jul-04 01:59N 50°42' W 001°49'0 0.0
2020-Jul-03 21:29N 50°42' W 001°49'0 0.1
2020-Jul-03 20:56N 50°42' W 001°49'  
Track history (hours):
 
Tides and Currents Weather Stations Pressure Air Temp Water Temp Dewpoint Dewpoint Depression Visibility Wind Speed Wind Dir Waves Ship Positions

Celebrity Galaxy

Last reported at 2020-Jul-13 17:54 UTC. Time now 2020-Jul-14 13:19 UTC.
Position N 50°36' W 002°22'.

Length 262 m; draft 8.4 m.

Type: Passenger vessel. MMSI: 249051000.

Date/timePositionNaut miles runAvg speedWind from/ knotsBaromVisibWave heightAir tempDewpointWater temp
2020-Jul-13 17:54N 50°36' W 002°22'0 0.0
2020-Jul-13 17:00N 50°36' W 002°22'0 0.0
2020-Jul-13 13:27N 50°36' W 002°22'0 0.0
2020-Jul-13 13:00N 50°36' W 002°22'0 0.0
2020-Jul-13 07:58N 50°36' W 002°22'0 0.0
2020-Jul-13 02:55N 50°36' W 002°22'0 0.0
2020-Jul-12 22:28N 50°36' W 002°22'0 0.0
2020-Jul-12 21:59N 50°36' W 002°22'0 0.0
2020-Jul-12 19:00N 50°36' W 002°22'0 0.0
2020-Jul-12 18:30N 50°36' W 002°22'0 0.0
2020-Jul-12 14:29N 50°36' W 002°22'0 0.0
2020-Jul-12 13:28N 50°36' W 002°22'0 0.0
2020-Jul-12 12:31N 50°36' W 002°22'0 0.0
2020-Jul-12 11:01N 50°36' W 002°22'0 0.0
2020-Jul-12 05:00N 50°36' W 002°22'0 0.0
2020-Jul-12 01:27N 50°36' W 002°22'0 0.0
2020-Jul-11 23:54N 50°36' W 002°22'0 0.0
2020-Jul-11 22:15N 50°36' W 002°22'0 0.0
2020-Jul-11 20:38N 50°36' W 002°22'0 0.0
2020-Jul-11 18:58N 50°36' W 002°22'0 0.0
2020-Jul-11 15:28N 50°36' W 002°22'0 0.0
2020-Jul-11 13:17N 50°36' W 002°22'0 0.1
2020-Jul-11 11:00N 50°36' W 002°22'14 6.2
2020-Jul-11 08:46N 50°28' W 002°04'912.4
2020-Jul-11 08:01N 50°27' W 001°49'12 0.9
2020-Jul-10 19:26N 50°25' W 001°32'0 0.2
2020-Jul-10 18:59N 50°25' W 001°32'0 0.0
2020-Jul-10 15:59N 50°25' W 001°32'0 0.2
2020-Jul-10 14:59N 50°25' W 001°31'0 0.0
2020-Jul-10 13:29N 50°25' W 001°31'0 0.0
2020-Jul-10 11:59N 50°25' W 001°31'0 0.0
2020-Jul-10 10:50N 50°25' W 001°31'0 0.0
2020-Jul-10 08:17N 50°25' W 001°31'0 0.0
2020-Jul-09 06:52N 50°25' W 001°31'0 0.2
2020-Jul-09 05:52N 50°25' W 001°32'0 0.1
2020-Jul-09 02:49N 50°25' W 001°31'1 0.1
2020-Jul-08 12:43N 50°25' W 001°30'0 0.0
2020-Jul-07 22:59N 50°25' W 001°29'0 0.1
2020-Jul-07 21:56N 50°25' W 001°30'0 0.0
2020-Jul-07 20:31N 50°25' W 001°30'0 0.1
2020-Jul-07 18:28N 50°25' W 001°30'14 5.5
2020-Jul-07 15:57N 50°32' W 001°11'4 4.8
2020-Jul-07 15:01N 50°36' W 001°08'0 0.3
2020-Jul-07 13:57N 50°36' W 001°08'0 0.4
2020-Jul-07 13:01N 50°37' W 001°07'0 0.0
2020-Jul-07 11:25N 50°37' W 001°07'0 0.1
2020-Jul-07 11:00N 50°37' W 001°07'7 1.9
2020-Jul-07 07:30N 50°32' W 000°60'8 4.1
2020-Jul-07 05:31N 50°28' W 001°10'2 4.8
2020-Jul-07 05:00N 50°29' W 001°14'32 6.3
2020-Jul-07 00:00N 50°21' W 002°02'6 3.9
2020-Jul-06 22:27N 50°26' W 002°08'20 5.8
2020-Jul-06 18:59N 50°42' W 001°49'0 0.0
2020-Jul-06 18:29N 50°42' W 001°49'0 0.0
2020-Jul-06 17:25N 50°42' W 001°49'0 0.0
2020-Jul-06 16:58N 50°42' W 001°49'0 0.0
2020-Jul-06 12:00N 50°42' W 001°49'0 0.1
2020-Jul-06 11:00N 50°42' W 001°49'0 0.1
2020-Jul-06 10:00N 50°42' W 001°49'0 0.0
2020-Jul-06 09:30N 50°42' W 001°49'0 0.0
2020-Jul-06 08:30N 50°42' W 001°49'0 0.0
2020-Jul-06 07:54N 50°42' W 001°49'0 0.0
2020-Jul-06 04:30N 50°42' W 001°49'0 0.0
2020-Jul-06 03:00N 50°42' W 001°49'0 0.0
2020-Jul-06 02:00N 50°42' W 001°49'0 0.0
2020-Jul-06 01:30N 50°42' W 001°49'0 0.0
2020-Jul-05 22:00N 50°42' W 001°49'0 0.0
2020-Jul-05 20:00N 50°42' W 001°49'0 0.0
2020-Jul-05 16:00N 50°42' W 001°49'0 0.2
2020-Jul-05 15:30N 50°42' W 001°49'0 0.0
2020-Jul-05 12:30N 50°42' W 001°49'0 0.0
2020-Jul-05 10:30N 50°42' W 001°49'0 0.0
2020-Jul-05 05:30N 50°42' W 001°49'0 0.0
2020-Jul-05 04:00N 50°42' W 001°49'0 0.0
2020-Jul-05 02:57N 50°42' W 001°49'0 0.0
2020-Jul-05 02:00N 50°42' W 001°49'0 0.0
2020-Jul-04 22:30N 50°42' W 001°49'0 0.0
2020-Jul-04 20:00N 50°42' W 001°49'0 0.1
2020-Jul-04 19:30N 50°42' W 001°49'0 0.1
2020-Jul-04 18:30N 50°42' W 001°49'22 3.5
2020-Jul-04 12:16N 50°34' W 002°21'8 9.9
2020-Jul-04 11:27N 50°30' W 002°10'17 2.0
2020-Jul-04 02:59N 50°42' W 001°49'0 0.0
2020-Jul-04 01:59N 50°42' W 001°49'0 0.0
2020-Jul-03 21:29N 50°42' W 001°49'0 0.1
2020-Jul-03 20:56N 50°42' W 001°49'  

Dump ship's entire track history